Terminal Aerodrome Forecast
Issued by NWS

Home | Current Version | Previous Version | Text Only | Print | Product List | Glossary On
Versions: 1 2 3 4 5 6 7 8 9 10 11 12 13 14 15 16 17
000
FTUS46 KOTX 231303 AAA
TAFPUW
TAF AMD
KPUW 231303Z 2313/2412 23009KT P6SM -SHRASN BKN025 OVC040
     FM231500 24015G24KT P6SM -SHRA SCT030 BKN050
     FM232200 22013G19KT P6SM VCSH FEW009 SCT040 OVC060
     FM240300 16010KT P6SM -RA SCT020 OVC030=

USA.gov is the U.S. government's official web portal to all federal, state and local government web resources and services.